createdAt,value
2022-08-10T00:01:31.611Z,19.74
2022-08-10T00:03:58.326Z,19.70
2022-08-10T00:06:24.958Z,19.76
2022-08-10T00:08:54.472Z,19.74
2022-08-10T00:11:21.156Z,19.69
2022-08-10T00:13:48.130Z,19.65
2022-08-10T00:16:14.771Z,19.57
2022-08-10T00:18:41.511Z,19.35
2022-08-10T00:21:09.389Z,19.34
2022-08-10T00:23:37.657Z,19.34
2022-08-10T00:26:05.791Z,19.27
2022-08-10T00:28:32.599Z,19.01
2022-08-10T00:30:59.791Z,19.15
2022-08-10T00:33:26.608Z,19.04
2022-08-10T00:35:53.319Z,18.90
2022-08-10T00:38:19.996Z,18.67
2022-08-10T00:40:46.636Z,18.71
2022-08-10T00:43:13.492Z,18.76
2022-08-10T00:45:40.171Z,18.49
2022-08-10T00:48:07.115Z,18.40
2022-08-10T00:50:33.834Z,18.32
2022-08-10T00:53:00.565Z,18.36
2022-08-10T00:55:27.422Z,18.32
2022-08-10T00:57:55.942Z,18.39
2022-08-10T01:00:23.876Z,18.18
2022-08-10T01:02:51.226Z,18.28
2022-08-10T01:05:18.269Z,18.23
2022-08-10T01:08:30.173Z,18.27
2022-08-10T01:10:56.742Z,18.39
2022-08-10T01:13:54.447Z,18.49
2022-08-10T01:16:32.989Z,18.26
2022-08-10T01:19:15.100Z,18.11
2022-08-10T01:22:24.714Z,17.85
2022-08-10T01:24:54.288Z,17.98
2022-08-10T01:27:45.482Z,18.00
2022-08-10T01:30:14.854Z,18.10
2022-08-10T01:32:53.376Z,18.10
2022-08-10T01:35:31.453Z,17.97
2022-08-10T01:38:09.184Z,17.93
2022-08-10T01:40:40.159Z,17.84
2022-08-10T01:43:10.610Z,17.71
2022-08-10T01:45:44.810Z,17.50
2022-08-10T01:48:36.492Z,17.55
2022-08-10T01:51:11.425Z,17.53
2022-08-10T01:53:51.501Z,17.77
2022-08-10T01:56:21.274Z,17.64
2022-08-10T01:58:58.530Z,17.69
2022-08-10T02:01:39.744Z,17.61
2022-08-10T02:04:09.875Z,17.79
2022-08-10T02:06:49.605Z,17.69
2022-08-10T02:09:24.328Z,17.77
2022-08-10T02:12:05.818Z,17.38
2022-08-10T02:14:39.686Z,17.46
2022-08-10T02:17:57.028Z,17.53
2022-08-10T02:19:59.421Z,17.55
2022-08-10T02:22:36.277Z,17.39
2022-08-10T02:25:08.110Z,17.52
2022-08-10T02:27:35.913Z,17.52
2022-08-10T02:30:05.703Z,17.65
2022-08-10T02:32:36.288Z,17.70
2022-08-10T02:35:08.781Z,17.61
2022-08-10T02:37:48.821Z,17.58
2022-08-10T02:45:02.708Z,17.62
2022-08-10T02:45:24.533Z,17.56
2022-08-10T02:46:11.005Z,17.35
2022-08-10T02:48:46.834Z,17.23
2022-08-10T02:52:07.815Z,17.06
2022-08-10T02:54:25.514Z,17.10
2022-08-10T02:57:06.511Z,17.01
2022-08-10T02:59:43.012Z,16.98
2022-08-10T03:02:13.737Z,17.01
2022-08-10T03:04:54.916Z,17.10
2022-08-10T03:07:43.399Z,16.93
2022-08-10T03:10:16.585Z,16.85
2022-08-10T03:12:46.129Z,16.74
2022-08-10T03:15:15.643Z,16.56
2022-08-10T03:17:57.994Z,16.73
2022-08-10T03:20:45.581Z,16.86
2022-08-10T03:23:20.870Z,16.86
2022-08-10T03:25:53.165Z,16.91
2022-08-10T03:28:24.016Z,16.89
2022-08-10T03:30:51.692Z,16.63
2022-08-10T03:33:21.163Z,16.36
2022-08-10T03:36:41.415Z,16.30
2022-08-10T03:38:35.562Z,16.26
2022-08-10T03:41:04.735Z,16.36
2022-08-10T03:43:32.628Z,16.42
2022-08-10T03:46:03.650Z,16.54
2022-08-10T03:48:44.716Z,16.46
2022-08-10T03:51:18.079Z,16.33
2022-08-10T03:54:04.941Z,16.29
2022-08-10T03:56:33.332Z,16.32
2022-08-10T03:59:01.474Z,16.28
2022-08-10T04:02:44.710Z,16.36
2022-08-10T04:04:20.940Z,16.57
2022-08-10T04:06:55.180Z,16.43
2022-08-10T04:09:42.801Z,16.48
2022-08-10T04:12:13.773Z,16.45
2022-08-10T04:14:49.690Z,16.62
2022-08-10T04:17:59.394Z,16.36
2022-08-10T04:20:24.071Z,16.40
2022-08-10T04:22:53.434Z,16.37
2022-08-10T04:25:21.528Z,16.46
2022-08-10T04:27:50.084Z,16.37
2022-08-10T04:30:17.554Z,16.41
2022-08-10T04:32:47.618Z,16.46
2022-08-10T04:35:17.247Z,16.62
2022-08-10T04:37:47.215Z,16.71
2022-08-10T04:40:28.775Z,16.71
2022-08-10T04:43:07.288Z,16.78
2022-08-10T04:45:49.202Z,16.69
2022-08-10T04:48:41.510Z,16.72
2022-08-10T04:51:18.379Z,16.98
2022-08-10T04:54:03.793Z,17.09
2022-08-10T04:56:38.099Z,17.08
2022-08-10T04:59:10.330Z,17.05
2022-08-10T05:02:22.306Z,16.97
2022-08-10T05:04:36.308Z,17.00
2022-08-10T05:07:07.100Z,17.16
2022-08-10T05:09:33.718Z,17.25
2022-08-10T05:12:20.813Z,17.18
2022-08-10T05:14:47.452Z,17.35
2022-08-10T05:17:14.137Z,17.22
2022-08-10T05:20:01.751Z,17.45
2022-08-10T05:22:27.539Z,17.41
2022-08-10T05:24:54.215Z,17.33
2022-08-10T05:27:20.915Z,17.41
2022-08-10T05:30:02.235Z,17.56
2022-08-10T05:32:31.643Z,17.54
2022-08-10T05:34:58.424Z,17.65
2022-08-10T05:38:09.660Z,17.65
2022-08-10T05:40:12.554Z,17.85
2022-08-10T05:42:39.774Z,17.92
2022-08-10T05:45:06.981Z,17.98
2022-08-10T05:48:53.833Z,18.09
2022-08-10T05:50:25.241Z,18.25
2022-08-10T05:52:52.948Z,18.38
2022-08-10T05:55:20.100Z,18.57
2022-08-10T05:57:47.621Z,18.43
2022-08-10T06:00:37.425Z,18.61
2022-08-10T06:03:05.449Z,18.57
2022-08-10T06:05:35.128Z,18.60
2022-08-10T06:08:06.307Z,18.73
2022-08-10T06:10:35.876Z,18.81
2022-08-10T06:13:29.866Z,18.90
2022-08-10T06:16:01.274Z,19.16
2022-08-10T06:18:27.983Z,19.15
2022-08-10T06:20:54.799Z,19.17
2022-08-10T06:23:23.060Z,19.13
2022-08-10T06:26:11.889Z,19.28
2022-08-10T06:28:40.804Z,19.46
2022-08-10T06:31:08.028Z,19.39
2022-08-10T06:33:37.800Z,19.40
2022-08-10T06:36:06.261Z,19.50
2022-08-10T06:38:35.112Z,19.47
2022-08-10T06:41:08.103Z,19.66
2022-08-10T06:43:36.784Z,19.82
2022-08-10T06:46:08.780Z,19.96
2022-08-10T06:48:50.214Z,20.13
2022-08-10T06:51:38.457Z,20.21
2022-08-10T06:54:10.821Z,20.62
2022-08-10T06:56:55.808Z,20.68
2022-08-10T06:59:44.687Z,20.62
2022-08-10T07:02:26.091Z,21.02
2022-08-10T07:04:59.455Z,21.05
2022-08-10T07:07:28.970Z,21.03
2022-08-10T07:09:57.649Z,21.14
2022-08-10T07:12:25.580Z,21.20
2022-08-10T07:14:53.756Z,21.20
2022-08-10T07:17:23.062Z,21.39
2022-08-10T07:19:54.465Z,21.78
2022-08-10T07:23:01.458Z,21.59
2022-08-10T07:25:16.624Z,21.65
2022-08-10T07:27:59.268Z,21.62
2022-08-10T07:30:30.627Z,21.87
2022-08-10T07:32:59.144Z,21.96
2022-08-10T07:35:30.745Z,22.15
2022-08-10T07:38:01.445Z,22.27
2022-08-10T07:40:31.945Z,22.36
2022-08-10T07:43:00.395Z,22.39
2022-08-10T07:45:31.012Z,22.35
2022-08-10T07:48:09.958Z,22.32
2022-08-10T07:50:39.428Z,22.45
2022-08-10T07:53:10.521Z,22.53
2022-08-10T07:56:04.550Z,22.56
2022-08-10T07:58:31.972Z,22.51
2022-08-10T08:01:00.645Z,22.53
2022-08-10T08:03:30.006Z,22.66
2022-08-10T08:06:05.334Z,22.72
2022-08-10T08:08:38.835Z,22.78
2022-08-10T08:11:06.752Z,22.79
2022-08-10T08:13:33.974Z,23.05
2022-08-10T08:16:15.889Z,22.88
2022-08-10T08:18:58.419Z,23.07
2022-08-10T08:24:11.140Z,22.88
2022-08-10T08:24:32.316Z,23.13
2022-08-10T08:27:02.811Z,23.56
2022-08-10T08:29:34.372Z,23.52
2022-08-10T08:32:03.367Z,23.65
2022-08-10T08:34:37.000Z,23.59
2022-08-10T08:37:05.261Z,23.74
2022-08-10T08:39:32.232Z,23.69
2022-08-10T08:42:20.573Z,23.88
2022-08-10T08:45:02.179Z,23.97
2022-08-10T08:48:13.493Z,24.02
2022-08-10T08:50:59.686Z,24.31
2022-08-10T08:54:05.161Z,23.96
2022-08-10T08:57:04.299Z,23.83
2022-08-10T09:00:00.624Z,23.87
2022-08-10T09:02:54.908Z,23.90
2022-08-10T09:06:00.078Z,23.98
2022-08-10T09:09:04.776Z,24.00
2022-08-10T09:11:51.257Z,24.04
2022-08-10T09:14:25.749Z,24.13
2022-08-10T09:17:24.069Z,24.46
2022-08-10T09:20:05.731Z,24.58
2022-08-10T09:22:46.013Z,25.02
2022-08-10T09:25:21.997Z,25.05
2022-08-10T09:27:54.104Z,24.75
2022-08-10T09:30:52.432Z,25.02
2022-08-10T09:36:23.505Z,25.68
2022-08-10T09:37:06.333Z,25.16
2022-08-10T09:40:06.586Z,25.27
2022-08-10T09:43:07.631Z,25.56
2022-08-10T09:45:57.476Z,25.93
2022-08-10T09:48:43.588Z,25.69
2022-08-10T09:51:45.853Z,25.96
2022-08-10T09:54:27.314Z,25.91
2022-08-10T09:57:44.147Z,26.09
2022-08-10T10:00:11.875Z,26.31
2022-08-10T10:03:06.056Z,26.18
2022-08-10T10:05:50.366Z,26.38
2022-08-10T10:08:21.815Z,26.25
2022-08-10T10:11:09.998Z,26.12
2022-08-10T10:13:41.696Z,25.86
2022-08-10T10:16:34.523Z,26.24
2022-08-10T10:19:20.026Z,26.30
2022-08-10T10:21:56.744Z,26.74
2022-08-10T10:24:51.174Z,26.78
2022-08-10T10:27:42.239Z,26.62
2022-08-10T10:30:09.926Z,26.68
2022-08-10T10:32:58.159Z,26.82
2022-08-10T10:35:52.893Z,27.03
2022-08-10T10:38:23.618Z,27.32
2022-08-10T10:41:10.391Z,27.28
2022-08-10T10:44:04.992Z,27.55
2022-08-10T10:46:50.142Z,27.26
2022-08-10T10:49:57.368Z,27.61
2022-08-10T10:53:02.180Z,27.99
2022-08-10T10:56:13.870Z,27.84
2022-08-10T10:58:51.618Z,27.83
2022-08-10T11:01:20.996Z,27.47
2022-08-10T11:03:47.660Z,27.41
2022-08-10T11:06:34.203Z,27.02
2022-08-10T11:10:08.651Z,26.83
2022-08-10T11:12:57.167Z,27.01
2022-08-10T11:15:43.010Z,26.85
2022-08-10T11:18:42.127Z,27.11
2022-08-10T11:21:35.396Z,27.50
2022-08-10T11:24:47.459Z,27.10
2022-08-10T11:27:21.538Z,27.69
2022-08-10T11:30:25.088Z,27.62
2022-08-10T11:33:07.499Z,27.74
2022-08-10T11:35:47.762Z,27.91
2022-08-10T11:38:31.713Z,27.16
2022-08-10T11:42:09.070Z,26.85
2022-08-10T11:44:18.270Z,26.78
2022-08-10T11:47:01.746Z,26.51
2022-08-10T11:49:38.093Z,27.06
2022-08-10T11:52:13.887Z,27.23
2022-08-10T11:54:52.236Z,27.52
2022-08-10T11:57:19.889Z,27.78
2022-08-10T11:59:47.899Z,27.64
2022-08-10T12:02:16.774Z,27.28
2022-08-10T12:04:51.894Z,27.08
2022-08-10T12:10:04.072Z,27.19
2022-08-10T12:10:13.582Z,27.30
2022-08-10T12:12:49.389Z,27.49
2022-08-10T12:15:23.435Z,27.69
2022-08-10T12:17:54.567Z,27.76
2022-08-10T12:20:37.354Z,27.90
2022-08-10T12:23:26.250Z,27.87
2022-08-10T12:26:02.184Z,28.02
2022-08-10T12:28:50.808Z,28.01
2022-08-10T12:31:29.870Z,27.72
2022-08-10T12:34:05.662Z,27.88
2022-08-10T12:36:40.145Z,28.02
2022-08-10T12:39:13.032Z,28.04
2022-08-10T12:42:12.129Z,28.00
2022-08-10T12:45:10.719Z,28.19
2022-08-10T12:47:44.299Z,27.85
2022-08-10T12:50:32.079Z,27.90
2022-08-10T12:53:06.811Z,28.16
2022-08-10T12:55:38.266Z,28.13
2022-08-10T12:58:59.956Z,27.76
2022-08-10T13:01:15.197Z,27.99
2022-08-10T13:04:23.987Z,27.79
2022-08-10T13:06:35.997Z,28.10
2022-08-10T13:09:02.869Z,28.21
2022-08-10T13:12:34.851Z,28.07
2022-08-10T13:14:24.252Z,28.37
2022-08-10T13:16:53.023Z,28.30
2022-08-10T13:19:20.600Z,28.11
2022-08-10T13:21:48.731Z,28.29
2022-08-10T13:24:25.874Z,28.30
2022-08-10T13:27:24.458Z,28.45
2022-08-10T13:30:13.897Z,28.58
2022-08-10T13:32:49.801Z,28.96
2022-08-10T13:35:17.215Z,28.25
2022-08-10T13:37:48.724Z,28.01
2022-08-10T13:40:19.894Z,28.28
2022-08-10T13:42:48.337Z,28.59
2022-08-10T13:45:21.312Z,28.57
2022-08-10T13:47:56.396Z,29.06
2022-08-10T13:50:35.207Z,28.78
2022-08-10T13:53:13.306Z,28.56
2022-08-10T13:55:54.568Z,28.29
2022-08-10T13:58:25.475Z,28.98
2022-08-10T14:00:55.171Z,29.22
2022-08-10T14:03:24.251Z,29.54
2022-08-10T14:05:53.822Z,29.64
2022-08-10T14:08:24.383Z,29.73
2022-08-10T14:11:01.387Z,29.69
2022-08-10T14:13:42.512Z,29.31
2022-08-10T14:16:11.691Z,28.93
2022-08-10T14:18:39.965Z,28.85
2022-08-10T14:21:07.498Z,28.44
2022-08-10T14:23:40.439Z,28.41
2022-08-10T14:26:15.852Z,28.22
2022-08-10T14:28:46.633Z,28.71
2022-08-10T14:31:22.020Z,28.69
2022-08-10T14:33:54.354Z,29.01
2022-08-10T14:36:32.059Z,29.06
2022-08-10T14:39:01.129Z,29.57
2022-08-10T14:42:02.503Z,28.94
2022-08-10T14:44:19.673Z,28.93
2022-08-10T14:46:54.285Z,28.77
2022-08-10T14:49:26.692Z,29.23
2022-08-10T14:51:59.992Z,29.43
2022-08-10T14:54:32.179Z,28.79
2022-08-10T14:57:18.333Z,28.43
2022-08-10T15:00:22.474Z,28.12
2022-08-10T15:02:56.330Z,28.74
2022-08-10T15:05:39.583Z,28.56
2022-08-10T15:08:08.869Z,28.31
2022-08-10T15:10:38.064Z,28.35
2022-08-10T15:13:20.476Z,28.75
2022-08-10T15:16:11.874Z,28.72
2022-08-10T15:18:58.234Z,28.80
2022-08-10T15:21:29.170Z,28.42
2022-08-10T15:24:14.696Z,28.37
2022-08-10T15:26:51.018Z,28.54
2022-08-10T15:29:25.467Z,29.06
2022-08-10T15:31:53.788Z,29.18
2022-08-10T15:34:20.734Z,29.29
2022-08-10T15:37:35.925Z,28.92
2022-08-10T15:40:25.051Z,29.48
2022-08-10T15:43:20.637Z,29.44
2022-08-10T15:46:09.673Z,29.50
2022-08-10T15:48:48.642Z,30.72
2022-08-10T15:51:53.901Z,29.80
2022-08-10T15:54:33.839Z,30.92
2022-08-10T15:57:13.138Z,31.90
2022-08-10T16:00:12.101Z,31.23
2022-08-10T16:03:00.842Z,31.29
2022-08-10T16:06:00.307Z,31.45
2022-08-10T16:08:26.088Z,31.00
2022-08-10T16:11:05.882Z,30.68
2022-08-10T16:14:00.898Z,30.41
2022-08-10T16:16:23.844Z,29.06
2022-08-10T16:18:53.257Z,29.28
2022-08-10T16:21:23.185Z,29.27
2022-08-10T16:24:15.209Z,29.14
2022-08-10T16:26:51.249Z,29.96
2022-08-10T16:29:21.572Z,31.19
2022-08-10T16:32:00.661Z,31.49
2022-08-10T16:34:31.187Z,31.63
2022-08-10T16:37:07.864Z,30.67
2022-08-10T16:39:59.048Z,29.20
2022-08-10T16:42:27.289Z,28.48
2022-08-10T16:45:08.344Z,28.18
2022-08-10T16:47:44.144Z,28.36
2022-08-10T16:50:12.858Z,28.66
2022-08-10T16:52:42.067Z,29.24
2022-08-10T16:55:49.595Z,29.19
2022-08-10T16:58:14.237Z,29.01
2022-08-10T17:00:43.201Z,29.03
2022-08-10T17:03:22.851Z,28.65
2022-08-10T17:06:10.076Z,28.44
2022-08-10T17:08:48.050Z,28.43
2022-08-10T17:11:17.096Z,28.07
2022-08-10T17:13:44.514Z,28.28
2022-08-10T17:16:14.434Z,27.92
2022-08-10T17:18:46.650Z,27.78
2022-08-10T17:21:14.398Z,27.37
2022-08-10T17:23:46.226Z,27.65
2022-08-10T17:26:23.939Z,27.47
2022-08-10T17:29:58.113Z,27.22
2022-08-10T17:32:19.959Z,26.83
2022-08-10T17:34:50.420Z,26.91
2022-08-10T17:37:20.527Z,27.24
2022-08-10T17:40:02.598Z,27.12
2022-08-10T17:42:30.618Z,27.08
2022-08-10T17:44:58.516Z,26.98
2022-08-10T17:47:27.842Z,26.95
2022-08-10T17:49:56.882Z,26.70
2022-08-10T17:52:31.000Z,26.82
2022-08-10T17:55:04.494Z,26.59
2022-08-10T17:57:39.660Z,26.41
2022-08-10T18:00:08.906Z,26.31
2022-08-10T18:02:38.777Z,26.19
2022-08-10T18:05:08.791Z,26.20
2022-08-10T18:07:50.067Z,26.07
2022-08-10T18:10:19.942Z,26.03
2022-08-10T18:12:50.308Z,25.91
2022-08-10T18:15:20.937Z,25.72
2022-08-10T18:18:00.236Z,25.69
2022-08-10T18:20:34.207Z,25.55
2022-08-10T18:23:01.709Z,25.37
2022-08-10T18:25:35.470Z,25.17
2022-08-10T18:28:06.332Z,25.04
2022-08-10T18:30:50.447Z,24.97
2022-08-10T18:33:19.093Z,24.95
2022-08-10T18:35:47.057Z,24.86
2022-08-10T18:38:15.445Z,24.66
2022-08-10T18:40:49.399Z,24.51
2022-08-10T18:44:07.555Z,24.46
2022-08-10T18:46:16.259Z,24.39
2022-08-10T18:48:50.058Z,24.39
2022-08-10T18:51:25.221Z,24.07
2022-08-10T18:54:39.778Z,24.09
2022-08-10T18:57:29.889Z,24.06
2022-08-10T19:00:09.293Z,24.04
2022-08-10T19:02:36.054Z,24.01
2022-08-10T19:05:50.236Z,23.93
2022-08-10T19:08:32.036Z,23.85
2022-08-10T19:11:40.295Z,23.71
2022-08-10T19:14:13.664Z,23.71
2022-08-10T19:17:01.594Z,23.50
2022-08-10T19:20:05.537Z,23.50
2022-08-10T19:22:50.533Z,23.57
2022-08-10T19:26:17.217Z,23.50
2022-08-10T19:28:41.518Z,23.43
2022-08-10T19:31:44.458Z,23.28
2022-08-10T19:34:24.486Z,23.20
2022-08-10T19:37:33.894Z,23.17
2022-08-10T19:40:44.828Z,22.98
2022-08-10T19:43:59.890Z,22.93
2022-08-10T19:46:59.110Z,22.75
2022-08-10T19:49:47.452Z,22.68
2022-08-10T19:52:34.736Z,22.54
2022-08-10T19:55:31.201Z,22.60
2022-08-10T19:58:16.049Z,22.61
2022-08-10T20:01:06.168Z,22.46
2022-08-10T20:03:38.795Z,22.29
2022-08-10T20:06:19.823Z,22.36
2022-08-10T20:08:53.172Z,22.25
2022-08-10T20:11:45.791Z,22.20
2022-08-10T20:14:32.634Z,22.23
2022-08-10T20:17:23.374Z,22.18
2022-08-10T20:20:06.246Z,22.11
2022-08-10T20:22:41.588Z,22.05
2022-08-10T20:25:23.836Z,22.05
2022-08-10T20:28:10.169Z,22.36
2022-08-10T20:30:45.742Z,22.13
2022-08-10T20:33:22.805Z,21.78
2022-08-10T20:36:00.740Z,22.09
2022-08-10T20:39:07.733Z,21.82
2022-08-10T20:41:43.919Z,22.17
2022-08-10T20:44:22.108Z,22.38
2022-08-10T20:46:54.792Z,22.45
2022-08-10T20:49:49.410Z,22.47
2022-08-10T20:52:16.051Z,22.73
2022-08-10T20:54:56.389Z,22.42
2022-08-10T20:57:54.385Z,22.38
2022-08-10T21:00:58.167Z,22.05
2022-08-10T21:03:44.885Z,21.76
2022-08-10T21:06:41.155Z,21.78
2022-08-10T21:09:28.371Z,22.00
2022-08-10T21:12:26.099Z,22.10
2022-08-10T21:14:53.967Z,22.05
2022-08-10T21:17:58.093Z,22.00
2022-08-10T21:20:45.178Z,21.73
2022-08-10T21:23:16.717Z,21.40
2022-08-10T21:26:33.810Z,21.46
2022-08-10T21:29:12.698Z,21.65
2022-08-10T21:32:06.944Z,21.23
2022-08-10T21:35:07.520Z,21.61
2022-08-10T21:37:58.704Z,21.72
2022-08-10T21:40:41.638Z,21.68
2022-08-10T21:43:44.027Z,21.64
2022-08-10T21:46:30.961Z,21.49
2022-08-10T21:49:05.778Z,21.50
2022-08-10T21:52:02.225Z,21.61
2022-08-10T21:54:52.682Z,21.21
2022-08-10T21:57:57.296Z,21.23
2022-08-10T22:00:24.627Z,21.10
2022-08-10T22:02:58.999Z,21.26
2022-08-10T22:05:39.065Z,21.00
2022-08-10T22:08:12.112Z,20.76
2022-08-10T22:10:49.091Z,21.08
2022-08-10T22:13:19.645Z,21.10
2022-08-10T22:16:05.703Z,21.25
2022-08-10T22:19:01.811Z,21.45
2022-08-10T22:21:45.216Z,21.25
2022-08-10T22:24:37.511Z,21.16
2022-08-10T22:27:46.842Z,21.08
2022-08-10T22:30:22.577Z,20.82
2022-08-10T22:32:52.656Z,20.98
2022-08-10T22:35:19.278Z,20.80
2022-08-10T22:37:57.954Z,20.69
2022-08-10T22:40:34.631Z,20.67
2022-08-10T22:43:11.048Z,20.61
2022-08-10T22:45:49.212Z,20.62
2022-08-10T22:48:16.234Z,20.70
2022-08-10T22:50:43.397Z,20.72
2022-08-10T22:53:16.080Z,20.54
2022-08-10T22:55:54.379Z,20.49
2022-08-10T22:58:21.862Z,20.49
2022-08-10T23:01:05.970Z,20.35
2022-08-10T23:03:42.073Z,20.05
2022-08-10T23:06:14.944Z,20.06
2022-08-10T23:08:45.852Z,19.95
2022-08-10T23:11:20.885Z,19.88
2022-08-10T23:13:50.293Z,19.86
2022-08-10T23:16:24.817Z,19.68
2022-08-10T23:18:55.815Z,19.66
2022-08-10T23:22:03.069Z,19.49
2022-08-10T23:24:30.227Z,19.35
2022-08-10T23:26:59.110Z,19.16
2022-08-10T23:29:44.725Z,18.94
2022-08-10T23:32:31.776Z,18.86
2022-08-10T23:36:05.514Z,18.99
2022-08-10T23:37:48.422Z,19.13
2022-08-10T23:40:18.098Z,19.15
2022-08-10T23:42:48.932Z,19.24
2022-08-10T23:45:18.966Z,19.36
2022-08-10T23:47:50.388Z,19.43
2022-08-10T23:50:19.256Z,19.42
2022-08-10T23:53:00.040Z,19.04
2022-08-10T23:55:33.955Z,18.99
2022-08-10T23:58:33.027Z,18.93
